首页
METAR-TAF:

METAR-TAF

机场 :

New Bern, 北卡罗来纳州, 美国

纬度: 35-04-03N, 经度: 077-02-50W, 海拔: 5米

当前天气观测

该预报发布于1小时和15分钟前的15:54 UTC
风速12节,风向南转西南,有时为22节阵风
温度 28°C
湿度 66%
气压 1017 hPa
能見度: 16.1公里
少量云层高于2800英尺

METAR: KEWN 051554Z 20012G22KT 10SM FEW028 28/21 A3002 RMK AO2 SLP167 T02780206

时间: 13:09 (17:09 UTC)

预报

该预报发布于5小时和45分钟前的11:24 UTC
预报有效从05日的 12点(UTC)到 06日的 12点(UTC)
风速7节,风向
能見度: 10公里
散云层高于3000英尺
多云层高于10000英尺
从 05日的 1500点(UTC)
风速8节,风向,有时为15节阵风
能見度: 10公里
散云层高于4000英尺
多云层高于10000英尺
附近有阵雨
从 05日的 2100点(UTC)
风速11节,风向,有时为21节阵风
能見度: 10公里
散云层高于5000英尺
多云层高于9000英尺
从 06日的 0200点(UTC)
风速5节,风向西南
能見度: 10公里
多云层高于4000英尺

TAF: KEWN 051124Z 0512/0612 19007KT P6SM SCT030 BKN100 FM051500 19008G15KT P6SM VCSH SCT040 BKN100 FM052100 18011G21KT P6SM SCT050 BKN090 FM060200 22005KT P6SM BKN040

超过4000个机场的气象观测和天气预报(METAR&TAF报告)。

可查询的气象台以黄色和红色小点在地图上表示。

将鼠标移到小点上方,可查看气象台名称。

然后点击查看天气观测和预报。

如需切换地图:点击带黑十字的绿色按钮放大地图;点击带横线的绿色按钮缩小地图;或者点击绿色箭头查看邻近地区的地图。


METAR-TAF: